Current Weather

Chicago Executive

Wheeling, Illinois (KPWK)

Report from: Wednesday, August 17, 2022 7:52 PM CDT
Current time: Wednesday, August 17, 2022 8:25 PM CDT

Nearby weather
Weather history
Weather forecast

Temperature22.2°C (72.0°F)
Dew point15.6°C (60.1°F)
Winds 3 kts (1.5 m/s, 3.5 mph) East-Northeast (60°)
Visibility10 mi. (16.1 km)
Clouds Sky clear
Altimeter30.09 in.Hg (1019 mB)
Relative humidity66 %
Density altitude891 ft. (272 m)
Sea-level pressure101.9 kPa (1019 mB, 30.08 in.Hg)
Remarks Automated weather observing station with precipitation discriminator
Flight conditions Visual Meteorological Conditions
Raw dataKPWK 180052Z 06003KT 10SM CLR 22/16 A3009 RMK AO2 SLP187 T02220156
An error has occurred. This application may no longer respond until reloaded. Reload 🗙